createdAt,value
2023-01-06T00:01:13.673Z,20.70
2023-01-06T00:03:40.498Z,20.80
2023-01-06T00:06:09.857Z,20.80
2023-01-06T00:08:37.307Z,20.80
2023-01-06T00:11:12.885Z,20.80
2023-01-06T00:13:40.267Z,20.80
2023-01-06T00:16:09.096Z,20.80
2023-01-06T00:18:36.261Z,20.80
2023-01-06T00:21:03.571Z,20.90
2023-01-06T00:23:30.817Z,20.90
2023-01-06T00:25:57.573Z,20.90
2023-01-06T00:28:24.395Z,20.90
2023-01-06T00:30:51.517Z,20.90
2023-01-06T00:33:18.462Z,20.90
2023-01-06T00:35:45.256Z,20.90
2023-01-06T00:38:12.222Z,20.90
2023-01-06T00:40:39.086Z,20.90
2023-01-06T00:43:05.917Z,20.90
2023-01-06T00:45:32.720Z,20.90
2023-01-06T00:47:59.451Z,20.90
2023-01-06T00:50:26.288Z,20.90
2023-01-06T00:52:53.942Z,20.90
2023-01-06T00:55:20.795Z,20.90
2023-01-06T00:57:49.920Z,20.90
2023-01-06T01:00:16.702Z,20.90
2023-01-06T01:02:43.552Z,20.90
2023-01-06T01:05:10.643Z,20.90
2023-01-06T01:07:37.656Z,20.80
2023-01-06T01:10:04.752Z,20.80
2023-01-06T01:12:32.141Z,20.80
2023-01-06T01:14:59.031Z,20.80
2023-01-06T01:17:31.184Z,20.80
2023-01-06T01:19:59.934Z,20.80
2023-01-06T01:22:29.012Z,20.80
2023-01-06T01:24:55.903Z,20.80
2023-01-06T01:27:22.653Z,20.80
2023-01-06T01:29:49.488Z,20.80
2023-01-06T01:32:16.240Z,20.80
2023-01-06T01:34:43.009Z,20.80
2023-01-06T01:37:09.842Z,20.70
2023-01-06T01:39:36.584Z,20.70
2023-01-06T01:42:03.583Z,20.70
2023-01-06T01:44:52.080Z,20.70
2023-01-06T01:47:47.780Z,20.80
2023-01-06T01:50:21.479Z,20.70
2023-01-06T01:52:51.933Z,20.70
2023-01-06T01:55:19.678Z,20.70
2023-01-06T01:58:01.912Z,20.70
2023-01-06T02:00:29.194Z,20.70
2023-01-06T02:02:56.895Z,20.70
2023-01-06T02:05:26.193Z,20.70
2023-01-06T02:07:54.572Z,20.80
2023-01-06T02:10:23.025Z,20.80
2023-01-06T02:12:53.917Z,20.80
2023-01-06T02:15:25.075Z,20.80
2023-01-06T02:18:21.214Z,20.80
2023-01-06T02:21:01.845Z,20.80
2023-01-06T02:23:58.270Z,20.80
2023-01-06T02:26:56.814Z,20.80
2023-01-06T02:30:08.078Z,20.80
2023-01-06T02:32:54.921Z,20.80
2023-01-06T02:35:44.190Z,20.80
2023-01-06T02:38:19.929Z,20.80
2023-01-06T02:41:02.111Z,20.80
2023-01-06T02:43:33.872Z,20.80
2023-01-06T02:46:16.037Z,20.80
2023-01-06T02:48:59.385Z,20.80
2023-01-06T02:51:45.190Z,20.70
2023-01-06T02:54:39.821Z,20.80
2023-01-06T02:57:12.338Z,20.80
2023-01-06T03:00:11.392Z,20.80
2023-01-06T03:02:41.421Z,20.90
2023-01-06T03:05:12.695Z,20.90
2023-01-06T03:07:40.425Z,21.00
2023-01-06T03:10:08.472Z,21.10
2023-01-06T03:12:50.471Z,21.10
2023-01-06T03:15:17.498Z,21.20
2023-01-06T03:17:44.825Z,21.30
2023-01-06T03:20:13.542Z,21.30
2023-01-06T03:22:41.206Z,21.40
2023-01-06T03:25:09.234Z,21.40
2023-01-06T03:27:36.144Z,21.40
2023-01-06T03:30:09.769Z,21.40
2023-01-06T03:32:51.441Z,21.40
2023-01-06T03:35:28.150Z,21.40
2023-01-06T03:38:26.832Z,21.30
2023-01-06T03:41:00.334Z,21.30
2023-01-06T03:43:59.594Z,21.20
2023-01-06T03:46:52.857Z,21.20
2023-01-06T03:49:28.598Z,21.30
2023-01-06T03:51:58.269Z,21.30
2023-01-06T03:54:47.949Z,21.30
2023-01-06T03:57:44.189Z,21.40
2023-01-06T04:00:24.386Z,21.40
2023-01-06T04:02:51.855Z,21.50
2023-01-06T04:05:27.099Z,21.50
2023-01-06T04:07:54.678Z,21.50
2023-01-06T04:10:23.154Z,21.50
2023-01-06T04:12:50.781Z,21.50
2023-01-06T04:15:21.491Z,21.50
2023-01-06T04:17:48.938Z,21.50
2023-01-06T04:20:25.300Z,21.50
2023-01-06T04:22:54.385Z,21.50
2023-01-06T04:25:21.951Z,21.50
2023-01-06T04:27:48.820Z,21.40
2023-01-06T04:30:15.800Z,21.50
2023-01-06T04:32:42.966Z,21.50
2023-01-06T04:35:10.182Z,21.50
2023-01-06T04:37:37.268Z,21.60
2023-01-06T04:40:04.482Z,21.60
2023-01-06T04:42:51.386Z,21.60
2023-01-06T04:45:18.214Z,21.70
2023-01-06T04:47:45.403Z,21.70
2023-01-06T04:50:12.416Z,21.70
2023-01-06T04:52:39.266Z,21.70
2023-01-06T04:55:06.188Z,21.70
2023-01-06T04:57:32.980Z,21.70
2023-01-06T04:59:59.714Z,21.60
2023-01-06T05:02:26.476Z,21.60
2023-01-06T05:04:53.224Z,21.50
2023-01-06T05:07:20.052Z,21.50
2023-01-06T05:09:46.811Z,21.40
2023-01-06T05:12:13.632Z,21.40
2023-01-06T05:14:40.364Z,21.30
2023-01-06T05:17:07.194Z,21.30
2023-01-06T05:19:33.961Z,21.30
2023-01-06T05:22:00.930Z,21.30
2023-01-06T05:24:27.668Z,21.30
2023-01-06T05:26:55.015Z,21.30
2023-01-06T05:29:21.767Z,21.30
2023-01-06T05:31:48.597Z,21.30
2023-01-06T05:34:15.464Z,21.40
2023-01-06T05:36:42.577Z,21.40
2023-01-06T05:39:09.359Z,21.40
2023-01-06T05:41:36.406Z,21.40
2023-01-06T05:44:03.237Z,21.40
2023-01-06T05:46:30.011Z,21.40
2023-01-06T05:48:57.249Z,21.40
2023-01-06T05:51:23.968Z,21.40
2023-01-06T05:53:50.733Z,21.40
2023-01-06T05:56:19.887Z,21.40
2023-01-06T05:58:49.538Z,21.40
2023-01-06T06:01:24.472Z,21.40
2023-01-06T06:03:52.544Z,21.40
2023-01-06T06:06:21.857Z,21.40
2023-01-06T06:08:48.676Z,21.50
2023-01-06T06:11:17.336Z,21.50
2023-01-06T06:13:52.611Z,21.60
2023-01-06T06:16:23.040Z,21.60
2023-01-06T06:18:52.384Z,21.60
2023-01-06T06:21:27.181Z,21.70
2023-01-06T06:23:54.970Z,21.70
2023-01-06T06:26:22.324Z,21.70
2023-01-06T06:28:49.181Z,21.70
2023-01-06T06:31:22.906Z,21.70
2023-01-06T06:33:55.161Z,21.60
2023-01-06T06:36:22.305Z,21.60
2023-01-06T06:38:51.398Z,21.60
2023-01-06T06:41:19.782Z,21.60
2023-01-06T06:43:47.959Z,21.60
2023-01-06T06:46:14.719Z,21.60
2023-01-06T06:48:41.691Z,21.60
2023-01-06T06:51:11.001Z,21.70
2023-01-06T06:53:39.236Z,21.70
2023-01-06T06:56:07.392Z,21.70
2023-01-06T06:58:35.229Z,21.70
2023-01-06T07:01:10.865Z,21.70
2023-01-06T07:03:38.413Z,21.80
2023-01-06T07:06:08.361Z,21.70
2023-01-06T07:08:35.225Z,21.70
2023-01-06T07:11:02.452Z,21.60
2023-01-06T07:13:29.410Z,21.60
2023-01-06T07:15:56.296Z,21.50
2023-01-06T07:18:23.102Z,21.40
2023-01-06T07:20:53.473Z,21.30
2023-01-06T07:23:21.431Z,21.20
2023-01-06T07:25:56.906Z,21.20
2023-01-06T07:28:24.692Z,21.10
2023-01-06T07:30:52.294Z,21.10
2023-01-06T07:33:20.220Z,21.10
2023-01-06T07:35:47.918Z,21.10
2023-01-06T07:38:14.718Z,21.10
2023-01-06T07:40:41.465Z,21.20
2023-01-06T07:43:10.566Z,21.20
2023-01-06T07:45:38.084Z,21.20
2023-01-06T07:48:05.424Z,21.30
2023-01-06T07:50:32.265Z,21.30
2023-01-06T07:53:01.343Z,21.30
2023-01-06T07:55:29.932Z,21.30
2023-01-06T07:57:58.465Z,21.30
2023-01-06T08:00:25.737Z,21.20
2023-01-06T08:02:53.062Z,21.20
2023-01-06T08:05:20.372Z,21.20
2023-01-06T08:07:47.179Z,21.10
2023-01-06T08:10:15.489Z,21.10
2023-01-06T08:12:42.258Z,21.00
2023-01-06T08:15:09.519Z,21.00
2023-01-06T08:17:36.461Z,21.00
2023-01-06T08:20:03.611Z,21.00
2023-01-06T08:22:30.685Z,21.00
2023-01-06T08:24:57.467Z,21.00
2023-01-06T08:27:24.335Z,21.00
2023-01-06T08:29:54.695Z,21.00
2023-01-06T08:32:21.946Z,21.00
2023-01-06T08:34:48.913Z,21.10
2023-01-06T08:37:15.765Z,21.10
2023-01-06T08:39:42.603Z,21.10
2023-01-06T08:42:09.397Z,21.20
2023-01-06T08:44:36.472Z,21.20
2023-01-06T08:47:03.409Z,21.20
2023-01-06T08:49:30.172Z,21.20
2023-01-06T08:51:57.141Z,21.10
2023-01-06T08:54:24.171Z,21.10
2023-01-06T08:56:51.040Z,21.10
2023-01-06T08:59:17.879Z,21.10
2023-01-06T09:01:45.270Z,21.10
2023-01-06T09:04:13.449Z,21.10
2023-01-06T09:06:43.273Z,21.10
2023-01-06T09:09:11.945Z,21.10
2023-01-06T09:11:44.338Z,21.10
2023-01-06T09:14:14.044Z,21.20
2023-01-06T09:16:42.052Z,21.30
2023-01-06T09:19:10.435Z,21.30
2023-01-06T09:21:37.674Z,21.30
2023-01-06T09:24:04.549Z,21.30
2023-01-06T09:26:31.407Z,21.40
2023-01-06T09:28:58.215Z,21.40
2023-01-06T09:31:25.285Z,21.40
2023-01-06T09:33:52.089Z,21.30
2023-01-06T09:36:18.826Z,21.30
2023-01-06T09:38:45.594Z,21.30
2023-01-06T09:41:51.716Z,21.20
2023-01-06T09:44:30.391Z,21.20
2023-01-06T09:46:59.408Z,21.20
2023-01-06T09:49:52.021Z,21.30
2023-01-06T09:52:43.274Z,21.30
2023-01-06T09:55:30.529Z,21.30
2023-01-06T09:58:03.584Z,21.40
2023-01-06T10:00:52.642Z,21.40
2023-01-06T10:03:22.460Z,21.40
2023-01-06T10:06:25.130Z,21.40
2023-01-06T10:09:04.037Z,21.50
2023-01-06T10:11:39.757Z,21.50
2023-01-06T10:14:22.229Z,21.50
2023-01-06T10:17:18.141Z,21.50
2023-01-06T10:20:02.024Z,21.60
2023-01-06T10:22:55.640Z,21.60
2023-01-06T10:25:32.934Z,21.60
2023-01-06T10:28:19.771Z,21.60
2023-01-06T10:30:50.466Z,21.60
2023-01-06T10:35:55.887Z,21.60
2023-01-06T10:38:28.592Z,21.70
2023-01-06T10:41:02.284Z,21.70
2023-01-06T10:43:29.414Z,21.70
2023-01-06T10:45:56.378Z,21.70
2023-01-06T10:48:30.479Z,21.70
2023-01-06T10:50:58.055Z,21.70
2023-01-06T10:53:25.042Z,21.80
2023-01-06T10:56:00.259Z,21.80
2023-01-06T10:58:52.747Z,21.90
2023-01-06T11:01:27.729Z,21.90
2023-01-06T11:04:12.047Z,22.00
2023-01-06T11:07:01.104Z,22.00
2023-01-06T11:09:36.860Z,22.00
2023-01-06T11:12:12.988Z,22.00
2023-01-06T11:14:41.207Z,22.10
2023-01-06T11:17:15.940Z,22.10
2023-01-06T11:19:44.736Z,22.20
2023-01-06T11:22:35.723Z,22.20
2023-01-06T11:25:04.652Z,22.20
2023-01-06T11:27:31.408Z,22.20
2023-01-06T11:29:58.241Z,22.20
2023-01-06T11:32:28.545Z,22.30
2023-01-06T11:35:01.241Z,22.30
2023-01-06T11:37:35.153Z,22.30
2023-01-06T11:40:19.107Z,22.30
2023-01-06T11:42:53.249Z,22.30
2023-01-06T11:45:46.768Z,22.30
2023-01-06T11:48:20.683Z,22.20
2023-01-06T11:50:59.170Z,22.20
2023-01-06T11:53:26.998Z,22.10
2023-01-06T11:56:16.777Z,22.10
2023-01-06T11:58:56.060Z,22.10
2023-01-06T12:01:43.242Z,22.10
2023-01-06T12:04:12.856Z,22.10
2023-01-06T12:06:45.058Z,22.10
2023-01-06T12:09:28.067Z,22.10
2023-01-06T12:11:56.916Z,22.20
2023-01-06T12:14:29.425Z,22.10
2023-01-06T12:17:08.787Z,22.20
2023-01-06T12:20:08.208Z,22.20
2023-01-06T12:22:51.466Z,22.30
2023-01-06T12:25:33.129Z,22.30
2023-01-06T12:28:04.503Z,22.30
2023-01-06T12:31:05.649Z,22.40
2023-01-06T12:33:49.376Z,22.40
2023-01-06T12:36:21.985Z,22.40
2023-01-06T12:38:55.798Z,22.40
2023-01-06T12:41:49.845Z,22.40
2023-01-06T12:44:25.427Z,22.40
2023-01-06T12:47:05.289Z,22.30
2023-01-06T12:49:40.500Z,22.30
2023-01-06T12:52:24.955Z,22.30
2023-01-06T12:54:57.061Z,22.30
2023-01-06T12:57:31.575Z,22.30
2023-01-06T13:00:04.015Z,22.30
2023-01-06T13:03:01.731Z,22.30
2023-01-06T13:05:44.307Z,22.30
2023-01-06T13:08:35.526Z,22.30
2023-01-06T13:11:26.971Z,22.40
2023-01-06T13:14:18.109Z,22.40
2023-01-06T13:17:06.227Z,22.50
2023-01-06T13:19:53.788Z,22.50
2023-01-06T13:23:03.148Z,22.50
2023-01-06T13:25:57.570Z,22.60
2023-01-06T13:28:39.368Z,22.60
2023-01-06T13:31:29.767Z,22.50
2023-01-06T13:34:27.700Z,22.50
2023-01-06T13:37:32.195Z,22.50
2023-01-06T13:40:10.371Z,22.40
2023-01-06T13:42:45.638Z,22.30
2023-01-06T13:45:28.239Z,22.30
2023-01-06T13:47:57.589Z,22.20
2023-01-06T13:50:25.899Z,22.20
2023-01-06T13:52:54.510Z,22.20
2023-01-06T13:55:33.840Z,22.20
2023-01-06T13:58:23.497Z,22.20
2023-01-06T14:01:13.457Z,22.20
2023-01-06T14:03:42.021Z,22.20
2023-01-06T14:06:21.889Z,22.20
2023-01-06T14:08:52.451Z,22.20
2023-01-06T14:11:41.864Z,22.20
2023-01-06T14:14:29.037Z,22.30
2023-01-06T14:16:57.061Z,22.30
2023-01-06T14:19:28.606Z,22.40
2023-01-06T14:22:26.123Z,22.40
2023-01-06T14:25:05.127Z,22.40
2023-01-06T14:27:47.135Z,22.40
2023-01-06T14:30:33.715Z,22.40
2023-01-06T14:33:29.949Z,22.40
2023-01-06T14:36:16.793Z,22.40
2023-01-06T14:38:45.414Z,22.30
2023-01-06T14:41:49.131Z,22.30
2023-01-06T14:44:19.807Z,22.30
2023-01-06T14:46:53.794Z,22.30
2023-01-06T14:49:46.521Z,22.30
2023-01-06T14:52:18.126Z,22.40
2023-01-06T14:54:47.352Z,22.40
2023-01-06T14:57:25.948Z,22.50
2023-01-06T15:00:08.998Z,22.60
2023-01-06T15:02:36.045Z,22.60
2023-01-06T15:05:03.537Z,22.60
2023-01-06T15:07:30.560Z,22.70
2023-01-06T15:10:17.706Z,22.70
2023-01-06T15:12:55.978Z,22.80
2023-01-06T15:15:28.691Z,22.80
2023-01-06T15:17:56.980Z,22.80
2023-01-06T15:20:32.993Z,22.80
2023-01-06T15:23:00.589Z,22.80
2023-01-06T15:25:29.523Z,22.70
2023-01-06T15:27:57.385Z,22.70
2023-01-06T15:30:34.601Z,22.70
2023-01-06T15:33:02.680Z,22.70
2023-01-06T15:35:34.341Z,22.70
2023-01-06T15:38:11.127Z,22.60
2023-01-06T15:40:39.677Z,22.60
2023-01-06T15:43:09.498Z,22.60
2023-01-06T15:45:37.129Z,22.60
2023-01-06T15:48:11.909Z,22.60
2023-01-06T15:50:38.700Z,22.60
2023-01-06T15:53:15.625Z,22.60
2023-01-06T15:55:44.199Z,22.50
2023-01-06T15:58:27.032Z,22.50
2023-01-06T16:00:59.709Z,22.50
2023-01-06T16:03:30.243Z,22.50
2023-01-06T16:06:14.961Z,22.40
2023-01-06T16:08:42.908Z,22.30
2023-01-06T16:11:15.803Z,22.30
2023-01-06T16:13:48.649Z,22.30
2023-01-06T16:16:15.481Z,22.20
2023-01-06T16:18:43.657Z,22.10
2023-01-06T16:21:20.846Z,22.10
2023-01-06T16:23:54.151Z,22.10
2023-01-06T16:26:23.573Z,22.00
2023-01-06T16:28:56.473Z,22.10
2023-01-06T16:31:39.070Z,22.10
2023-01-06T16:34:20.839Z,22.10
2023-01-06T16:36:52.201Z,22.10
2023-01-06T16:39:19.100Z,22.10
2023-01-06T16:42:01.110Z,22.10
2023-01-06T16:44:32.297Z,22.20
2023-01-06T16:47:00.061Z,22.20
2023-01-06T16:49:29.256Z,22.20
2023-01-06T16:51:56.151Z,22.20
2023-01-06T16:54:23.429Z,22.30
2023-01-06T16:56:52.116Z,22.30
2023-01-06T16:59:22.238Z,22.30
2023-01-06T17:01:49.389Z,22.40
2023-01-06T17:04:16.284Z,22.40
2023-01-06T17:06:45.982Z,22.40
2023-01-06T17:09:21.618Z,22.40
2023-01-06T17:11:49.707Z,22.40
2023-01-06T17:14:19.075Z,22.40
2023-01-06T17:16:47.434Z,22.40
2023-01-06T17:19:30.119Z,22.40
2023-01-06T17:22:18.670Z,22.30
2023-01-06T17:24:45.595Z,22.30
2023-01-06T17:27:21.582Z,22.30
2023-01-06T17:29:49.772Z,22.30
2023-01-06T17:32:37.336Z,22.30
2023-01-06T17:35:26.280Z,22.40
2023-01-06T17:37:54.079Z,22.40
2023-01-06T17:40:31.692Z,22.40
2023-01-06T17:43:02.909Z,22.40
2023-01-06T17:45:30.221Z,22.40
2023-01-06T17:47:57.519Z,22.40
2023-01-06T17:50:31.114Z,22.40
2023-01-06T17:53:35.843Z,22.40
2023-01-06T17:56:13.104Z,22.40
2023-01-06T17:58:43.025Z,22.30
2023-01-06T18:01:24.475Z,22.30
2023-01-06T18:03:53.449Z,22.30
2023-01-06T18:06:30.218Z,22.20
2023-01-06T18:09:05.291Z,22.20
2023-01-06T18:11:37.166Z,22.20
2023-01-06T18:14:33.725Z,22.10
2023-01-06T18:17:27.538Z,22.10
2023-01-06T18:19:54.552Z,22.10
2023-01-06T18:22:26.072Z,22.20
2023-01-06T18:24:58.083Z,22.20
2023-01-06T18:27:33.383Z,22.20
2023-01-06T18:30:18.074Z,22.20
2023-01-06T18:32:46.024Z,22.20
2023-01-06T18:35:18.536Z,22.30
2023-01-06T18:37:45.461Z,22.30
2023-01-06T18:40:23.969Z,22.30
2023-01-06T18:42:52.357Z,22.30
2023-01-06T18:45:22.420Z,22.30
2023-01-06T18:47:50.752Z,22.30
2023-01-06T18:50:25.693Z,22.30
2023-01-06T18:52:54.358Z,22.20
2023-01-06T18:55:35.167Z,22.30
2023-01-06T18:58:14.037Z,22.30
2023-01-06T19:00:52.081Z,22.30
2023-01-06T19:03:37.082Z,22.20
2023-01-06T19:06:19.046Z,22.20
2023-01-06T19:08:49.689Z,22.20
2023-01-06T19:11:19.481Z,22.10
2023-01-06T19:13:46.701Z,22.10
2023-01-06T19:16:26.661Z,22.10
2023-01-06T19:18:56.219Z,22.10
2023-01-06T19:21:23.219Z,22.10
2023-01-06T19:23:50.050Z,22.10
2023-01-06T19:26:29.374Z,22.20
2023-01-06T19:29:02.641Z,22.20
2023-01-06T19:31:30.685Z,22.20
2023-01-06T19:34:00.626Z,22.30
2023-01-06T19:36:43.246Z,22.30
2023-01-06T19:39:26.728Z,22.30
2023-01-06T19:41:58.113Z,22.30
2023-01-06T19:44:33.023Z,22.30
2023-01-06T19:47:16.401Z,22.40
2023-01-06T19:49:49.514Z,22.40
2023-01-06T19:52:36.318Z,22.40
2023-01-06T19:55:25.852Z,22.50
2023-01-06T19:57:57.415Z,22.40
2023-01-06T20:00:47.786Z,22.40
2023-01-06T20:03:41.173Z,22.30
2023-01-06T20:06:07.929Z,22.30
2023-01-06T20:08:34.683Z,22.30
2023-01-06T20:11:01.414Z,22.20
2023-01-06T20:13:28.233Z,22.20
2023-01-06T20:15:55.065Z,22.20
2023-01-06T20:18:21.791Z,22.10
2023-01-06T20:20:48.531Z,22.10
2023-01-06T20:23:15.823Z,22.10
2023-01-06T20:25:43.175Z,22.10
2023-01-06T20:28:10.073Z,22.10
2023-01-06T20:30:36.836Z,22.10
2023-01-06T20:33:03.784Z,22.10
2023-01-06T20:35:30.537Z,22.10
2023-01-06T20:37:57.360Z,22.10
2023-01-06T20:40:24.206Z,22.10
2023-01-06T20:42:50.949Z,22.10
2023-01-06T20:45:17.934Z,22.00
2023-01-06T20:47:44.740Z,22.00
2023-01-06T20:50:14.434Z,22.00
2023-01-06T20:52:45.509Z,21.90
2023-01-06T20:55:12.840Z,21.90
2023-01-06T20:57:39.589Z,21.90
2023-01-06T21:00:07.870Z,21.80
2023-01-06T21:02:34.787Z,21.80
2023-01-06T21:05:01.620Z,21.70
2023-01-06T21:07:29.447Z,21.70
2023-01-06T21:09:56.841Z,21.70
2023-01-06T21:12:23.635Z,21.70
2023-01-06T21:14:50.405Z,21.70
2023-01-06T21:17:17.269Z,21.70
2023-01-06T21:19:44.070Z,21.60
2023-01-06T21:22:10.852Z,21.60
2023-01-06T21:24:37.617Z,21.60
2023-01-06T21:27:04.385Z,21.60
2023-01-06T21:29:31.148Z,21.60
2023-01-06T21:31:57.886Z,21.50
2023-01-06T21:34:24.719Z,21.50
2023-01-06T21:36:51.622Z,21.40
2023-01-06T21:39:18.641Z,21.40
2023-01-06T21:42:03.853Z,21.40
2023-01-06T21:44:30.605Z,21.30
2023-01-06T21:46:59.212Z,21.30
2023-01-06T21:49:28.043Z,21.30
2023-01-06T21:51:56.244Z,21.20
2023-01-06T21:54:23.127Z,21.20
2023-01-06T21:56:50.354Z,21.20
2023-01-06T21:59:17.674Z,21.20
2023-01-06T22:01:44.531Z,21.20
2023-01-06T22:04:11.480Z,21.20
2023-01-06T22:06:40.493Z,21.20
2023-01-06T22:09:09.122Z,21.10
2023-01-06T22:11:37.951Z,21.20
2023-01-06T22:14:05.986Z,21.20
2023-01-06T22:16:33.392Z,21.20
2023-01-06T22:19:00.283Z,21.20
2023-01-06T22:21:27.941Z,21.20
2023-01-06T22:23:56.909Z,21.10
2023-01-06T22:26:23.726Z,21.10
2023-01-06T22:28:50.482Z,21.10
2023-01-06T22:31:18.869Z,21.10
2023-01-06T22:33:45.722Z,21.10
2023-01-06T22:36:12.530Z,21.10
2023-01-06T22:38:39.347Z,21.00
2023-01-06T22:41:07.008Z,21.00
2023-01-06T22:43:34.148Z,21.00
2023-01-06T22:46:00.950Z,21.00
2023-01-06T22:48:28.220Z,21.00
2023-01-06T22:50:59.748Z,21.00
2023-01-06T22:53:27.665Z,21.00
2023-01-06T22:56:09.566Z,21.00
2023-01-06T22:58:38.304Z,21.00
2023-01-06T23:01:07.458Z,21.00
2023-01-06T23:03:34.692Z,20.90
2023-01-06T23:06:07.219Z,20.90
2023-01-06T23:08:36.530Z,20.90
2023-01-06T23:11:12.620Z,20.90
2023-01-06T23:13:40.722Z,20.90
2023-01-06T23:16:19.616Z,20.90
2023-01-06T23:18:48.213Z,20.90
2023-01-06T23:21:26.760Z,20.90
2023-01-06T23:23:54.190Z,20.90
2023-01-06T23:26:25.296Z,20.90
2023-01-06T23:28:54.002Z,20.90
2023-01-06T23:31:29.822Z,20.90
2023-01-06T23:34:00.138Z,20.90
2023-01-06T23:36:30.743Z,20.90
2023-01-06T23:38:58.834Z,20.90
2023-01-06T23:41:30.753Z,20.90
2023-01-06T23:43:57.940Z,20.90
2023-01-06T23:46:33.456Z,20.90
2023-01-06T23:49:00.299Z,20.90
2023-01-06T23:51:32.214Z,20.90
2023-01-06T23:54:02.820Z,20.80
2023-01-06T23:56:31.491Z,20.80
2023-01-06T23:59:00.056Z,20.80
